• Join FlightAware (Why Join?)
  • Login
  • US Flag 
04:51PM EDT


 

Airport Tracker/Info


-or-


 

Live Flight TrackerFlight Track Log ✈ FDX55 ✈ 26-Apr-2013 ✈ KMIA - SVVA / VLN

Flight Track Log - Related Links

Times and Time Zones

All times are in EDT time to prevent confusion due to time zone crossing. See the FDX55 flight status page for this flight to view local times or setup timezone preferences in your user account.

Time Position Orientation Groundspeed Altitude Reporting Facility
EDT Latitude Longitude Course Direction KTS MPH feet Rate Location/Type
08:33AM 25.7981 -80.2744 94° East 120 138 1,100  Level Miami Center
08:33AM 25.7967 -80.2536 94° East 147 169 2,000 1,860 Climbing Miami Center
08:34AM 25.7786 -80.2208 121° Southeast 225 259 3,000 2,460 Climbing Miami Center
08:34AM 25.7686 -80.1931 112° Southeast 260 299 4,500 4,380 Climbing Miami Center
08:35AM 25.7406 -80.1436 122° Southeast 277 319 7,500 4,080 Climbing Miami Center
08:35AM 25.7347 -80.1206 106° East 269 310 8,600 2,460 Climbing Miami Center
08:36AM 25.7158 -80.0300 103° East 321 369 10,800 2,640 Climbing Miami Center
08:37AM 25.6933 -79.9164 102° East 338 389 13,900 3,060 Climbing Miami Center
08:38AM 25.6686 -79.7983 103° East 373 429 17,000 2,880 Climbing Miami Center
08:39AM 25.6458 -79.6686 101° East 403 464 19,700 2,640 Climbing Miami Center
08:40AM 25.6108 -79.5364 106° East 418 481 22,300 2,340 Climbing Miami Center
08:41AM 25.5839 -79.3978 102° East 443 510 24,400 1,260 Climbing Miami Center
08:42AM 25.5508 -79.2542 104° East 464 534 24,900 240 Climbing Miami Center
08:43AM 25.5194 -79.1292 106° East 451 519 24,900  Level Miami Center
08:44AM 25.4792 -79.0272 114° Southeast 408 470 25,000  Climbing Miami Center
08:45AM 25.4219 -78.9411 126° Southeast 357 411 25,000 180 Level Miami Center
08:46AM 25.3603 -78.8642 132° Southeast 342 394 25,400 600 Climbing Miami Center
08:47AM 25.2842 -78.7733 133° Southeast 367 422 26,300 900 Climbing Miami Center
08:48AM 25.2019 -78.6664 130° Southeast 413 475 27,200 1,020 Climbing Miami Center
08:49AM 25.1072 -78.5547 133° Southeast 464 534 28,400 1,800 Climbing Miami Center
08:50AM 25.0164 -78.4389 131° Southeast 490 564 30,900 2,160 Climbing Miami Center
08:51AM 24.9214 -78.3253 133° Southeast 496 571 32,800 1,620 Climbing Miami Center
08:52AM 24.8286 -78.2144 133° Southeast 501 577 34,200 960 Climbing Miami Center
08:53AM 24.7333 -78.0967 132° Southeast 501 577 35,000 360 Climbing Miami Center
08:54AM 24.6197 -77.9561 132° Southeast 501 577 35,000  Level Miami Center
08:55AM 24.5264 -77.8411 132° Southeast 501 577 35,000  Level Miami Center
08:56AM 24.4308 -77.7261 132° Southeast 506 582 35,000  Level Miami Center
08:57AM 24.3353 -77.6092 132° Southeast 506 582 35,000  Level Miami Center
08:58AM 24.2419 -77.4969 132° Southeast 506 582 35,000  Level Miami Center
08:59AM 24.1461 -77.3781 131° Southeast 506 582 35,000  Level Miami Center
09:00AM 24.0525 -77.2639 132° Southeast 506 582 35,000  Level Miami Center
09:01AM 23.9544 -77.1522 134° Southeast 506 582 35,000  Level Miami Center
09:02AM 23.8711 -77.0497 132° Southeast 506 582 35,000  Level Miami Center
09:03AM 23.7750 -76.9339 132° Southeast 501 577 35,000  Level Miami Center
09:04AM 23.6811 -76.8203 132° Southeast 501 577 35,000  Level Miami Center
09:05AM 23.5869 -76.7092 133° Southeast 501 577 35,000  Level Miami Center
09:06AM 23.4906 -76.5939 132° Southeast 501 577 35,000  Level Miami Center
09:07AM 23.3964 -76.4831 133° Southeast 501 577 35,000  Level Miami Center
09:08AM 23.3019 -76.3703 132° Southeast 501 577 35,000  Level Miami Center
09:09AM 23.1928 -76.2464 134° Southeast 506 582 35,000  Level Miami Center
09:10AM 23.0983 -76.1339 132° Southeast 506 582 35,000  Level Miami Center
09:11AM 23.0036 -76.0217 133° Southeast 506 582 35,000  Level Miami Center
09:12AM 22.9069 -75.9094 133° Southeast 501 577 35,000  Level Miami Center
09:13AM 22.8122 -75.7997 133° Southeast 501 577 35,000  Level Miami Center
09:14AM 22.7153 -75.6881 133° Southeast 501 577 35,000  Level Miami Center
09:15AM 22.6203 -75.5764 133° Southeast 501 577 35,000  Level Miami Center
09:16AM 22.5253 -75.4669 133° Southeast 501 577 35,000  Level Miami Center
09:17AM 22.4303 -75.3556 133° Southeast 501 577 35,000  Level Miami Center
09:18AM 22.3331 -75.2444 133° Southeast 501 577 35,000  Level Miami Center
09:20AM 22.2157 -75.1072 133° Southeast  Level FlightAware Approximate
09:21AM 22.0328 -74.9347 140° Southeast 501 577 35,000  Level Miami Center
09:22AM 21.9250 -74.8356 140° Southeast 501 577 35,000  Level Miami Center
09:23AM 21.8192 -74.7386 140° Southeast 506 582 35,000  Level Miami Center
09:24AM 21.7156 -74.6353 137° Southeast 506 582 35,000  Level Miami Center
09:25AM 21.6075 -74.5367 140° Southeast 506 582 35,000  Level Miami Center
09:26AM 21.5017 -74.4381 139° Southeast 506 582 35,000  Level Miami Center
09:27AM 21.5370 -74.4771 140° Southeast  Level FlightAware Approximate
09:27AM 21.3936 -74.3442 141° Southeast 506 582 35,000  Level Miami Center
09:28AM 21.3003 -74.2592 140° Southeast 501 577 34,900  Descending Miami Center
09:29AM 21.1922 -74.1611 140° Southeast 501 577 35,000  Climbing Miami Center
09:30AM 21.0861 -74.0631 139° Southeast 506 582 35,000  Level Miami Center
09:31AM 20.9778 -73.9675 141° Southeast 506 582 35,000  Level Miami Center
09:32AM 20.8717 -73.8719 140° Southeast 506 582 35,000  Level Miami Center
09:33AM 20.7633 -73.7744 140° Southeast 506 582 35,000  Level Miami Center
09:34AM 20.6592 -73.6772 139° Southeast 506 582 35,000  Level Miami Center
09:35AM 20.5528 -73.5822 140° Southeast 506 582 35,000  Level Miami Center
09:36AM 20.4422 -73.4853 141° Southeast 506 582 35,000  Level Miami Center
09:37AM 20.3358 -73.3906 140° Southeast 506 582 35,000  Level Miami Center
09:38AM 20.2294 -73.2936 139° Southeast 506 582 35,000  Level Miami Center
09:39AM 20.1147 -73.2039 144° Southeast 506 582 35,000  Level Miami Center
09:40AM 19.9900 -73.1322 152° Southeast 506 582 35,000  Level Miami Center
09:42AM 19.8390 -73.0428 151° Southeast  Level FlightAware Approximate
09:49AM 19.0438 -72.6040 153° Southeast  Level FlightAware Approximate
09:50AM 18.9299 -72.5420 153° Southeast  Level FlightAware Approximate
09:51AM 18.8161 -72.4801 153° Southeast  Level FlightAware Approximate
09:52AM 18.7022 -72.4183 153° Southeast  Level FlightAware Approximate
09:53AM 18.5883 -72.3565 153° Southeast  Level FlightAware Approximate
09:54AM 18.4743 -72.2949 153° Southeast  Level FlightAware Approximate
09:55AM 18.3604 -72.2333 153° Southeast  Level FlightAware Approximate
09:56AM 18.2464 -72.1718 153° Southeast  Level FlightAware Approximate
09:57AM 18.1325 -72.1104 153° Southeast  Level FlightAware Approximate
09:58AM 18.0184 -72.0490 153° Southeast  Level FlightAware Approximate
09:59AM 17.9044 -71.9877 153° Southeast  Level FlightAware Approximate
10:00AM 17.7904 -71.9266 153° Southeast  Level FlightAware Approximate
10:01AM 17.6763 -71.8654 153° Southeast  Level FlightAware Approximate
10:02AM 17.5623 -71.8044 153° Southeast  Level FlightAware Approximate
10:03AM 17.4482 -71.7435 153° Southeast  Level FlightAware Approximate
10:04AM 17.3341 -71.6824 153° Southeast  Level FlightAware Approximate
10:05AM 17.2203 -71.6209 153° Southeast  Level FlightAware Approximate
10:06AM 17.1065 -71.5595 153° Southeast  Level FlightAware Approximate
10:07AM 16.9927 -71.4981 153° Southeast  Level FlightAware Approximate
10:08AM 16.8788 -71.4369 153° Southeast  Level FlightAware Approximate
10:09AM 16.7650 -71.3757 153° Southeast  Level FlightAware Approximate
10:10AM 16.6511 -71.3145 153° Southeast  Level FlightAware Approximate
10:11AM 16.5372 -71.2535 153° Southeast  Level FlightAware Approximate
10:12AM 16.4233 -71.1925 153° Southeast  Level FlightAware Approximate
10:13AM 16.3093 -71.1316 153° Southeast  Level FlightAware Approximate
10:14AM 16.1954 -71.0708 153° Southeast  Level FlightAware Approximate
10:15AM 16.0814 -71.0100 153° Southeast  Level FlightAware Approximate
10:16AM 15.9673 -70.9495 153° Southeast  Level FlightAware Approximate
10:17AM 15.8530 -70.8895 153° Southeast  Level FlightAware Approximate
10:18AM 15.7387 -70.8295 153° Southeast  Level FlightAware Approximate
10:19AM 15.6243 -70.7697 153° Southeast  Level FlightAware Approximate
10:20AM 15.5099 -70.7098 153° Southeast  Level FlightAware Approximate
10:21AM 15.3956 -70.6501 153° Southeast  Level FlightAware Approximate
10:22AM 15.2812 -70.5904 153° Southeast  Level FlightAware Approximate
10:23AM 15.1668 -70.5308 153° Southeast  Level FlightAware Approximate
10:24AM 15.0524 -70.4713 153° Southeast  Level FlightAware Approximate
10:25AM 14.9379 -70.4118 153° Southeast  Level FlightAware Approximate
10:26AM 14.8235 -70.3524 153° Southeast  Level FlightAware Approximate
10:27AM 14.7090 -70.2930 153° Southeast  Level FlightAware Approximate
10:28AM 14.5945 -70.2337 153° Southeast  Level FlightAware Approximate
10:29AM 14.4800 -70.1745 153° Southeast  Level FlightAware Approximate
10:30AM 14.3655 -70.1153 153° Southeast  Level FlightAware Approximate
10:31AM 14.2510 -70.0562 153° Southeast  Level FlightAware Approximate
10:32AM 14.1364 -69.9971 153° Southeast  Level FlightAware Approximate
10:33AM 14.0219 -69.9381 153° Southeast  Level FlightAware Approximate
10:34AM 13.9073 -69.8792 153° Southeast  Level FlightAware Approximate
10:35AM 13.7927 -69.8203 153° Southeast  Level FlightAware Approximate
10:36AM 13.6781 -69.7615 153° Southeast  Level FlightAware Approximate
10:37AM 13.5635 -69.7028 154° Southeast  Level FlightAware Approximate
10:38AM 13.4489 -69.6441 154° Southeast  Level FlightAware Approximate
10:39AM 13.3342 -69.5854 154° Southeast  Level FlightAware Approximate
10:40AM 13.2196 -69.5268 154° Southeast  Level FlightAware Approximate
10:41AM 13.1049 -69.4683 154° Southeast  Level FlightAware Approximate
10:42AM 12.9902 -69.4098 154° Southeast  Level FlightAware Approximate
10:43AM 12.8755 -69.3514 154° Southeast  Level FlightAware Approximate
10:44AM 12.7608 -69.2930 154° Southeast  Level FlightAware Approximate
10:45AM 12.6461 -69.2347 154° Southeast  Level FlightAware Approximate
10:46AM 12.5314 -69.1764 154° Southeast  Level FlightAware Approximate
10:47AM 12.4166 -69.1182 154° Southeast  Level FlightAware Approximate
10:48AM 12.3019 -69.0600 154° Southeast  Level FlightAware Approximate
10:49AM 12.1871 -69.0019 154° Southeast  Level FlightAware Approximate
10:50AM 12.0758 -68.9372 153° Southeast  Level FlightAware Approximate
10:51AM 11.9620 -68.8773 153° Southeast  Level FlightAware Approximate
10:52AM 11.8481 -68.8174 153° Southeast  Level FlightAware Approximate
10:53AM 11.7417 -68.7479 166° South  Level FlightAware Approximate
10:54AM 11.6240 -68.6994 151° Southeast  Level FlightAware Approximate
10:55AM 11.5123 -68.6356 151° Southeast  Level FlightAware Approximate
10:56AM 11.3999 -68.5730 152° Southeast  Level FlightAware Approximate
10:57AM 11.2866 -68.5120 152° Southeast  Level FlightAware Approximate
10:58AM 11.1736 -68.4507 152° Southeast  Level FlightAware Approximate
10:59AM 11.0607 -68.3891 152° Southeast  Level FlightAware Approximate
11:00AM 10.9478 -68.3275 152° Southeast  Level FlightAware Approximate
11:01AM 10.8350 -68.2657 151° Southeast  Level FlightAware Approximate
11:02AM 10.7226 -68.2033 151° Southeast  Level FlightAware Approximate
11:03AM 10.6079 -68.1456 154° Southeast  Level FlightAware Approximate
11:04AM 10.4978 -68.0811 135° Southeast  Level FlightAware Approximate
11:05AM 10.3840 -68.0241 157° South  Level FlightAware Approximate
11:06AM 10.2675 -67.9703 159° South  Level FlightAware Approximate
11:07AM 10.1508 -67.9171 154° Southeast  Level FlightAware Approximate
11:08AM 10.1500 -67.9167 154° Southeast  Level FlightAware Approximate
11:09AM 10.1497 -67.9284 154° Southeast  Level Estimated
11:10AM 10.1497 -67.9284 154° Southeast  Level Estimated
11:11AM 10.1497 -67.9284 154° Southeast  Level Estimated
11:12AM 10.1497 -67.9284 154° Southeast  Level Estimated
11:13AM 10.1497 -67.9284 154° Southeast  Level Estimated
11:14AM 10.1497 -67.9284 154° Southeast  Level Estimated
11:15AM 10.1497 -67.9284 154° Southeast  Level Estimated
11:16AM 10.1497 -67.9284 154° Southeast  Level Estimated
11:17AM 10.1497 -67.9284 154° Southeast  Level Estimated
11:18AM 10.1497 -67.9284 154° Southeast  Level Estimated
11:19AM 10.1497 -67.9284 154° Southeast  Level Estimated
11:20AM 10.1497 -67.9284 154° Southeast  Level Estimated
11:21AM 10.1497 -67.9284 154° Southeast  Level Estimated
11:22AM 10.1497 -67.9284 154° Southeast  Level Estimated
11:23AM 10.1497 -67.9284 154° Southeast  Level Estimated
11:24AM 10.1497 -67.9284 154° Southeast  Level Estimated
11:25AM 10.1497 -67.9284 154° Southeast  Level Estimated